Crisp, Illinois
Current Conditions -  °F | °C
As of 10:15 PM on Wednesday 26 Nov 2014 (Local Time) from KFWC Reporting Station
Moderate Rain Moderate Rain  
Wind Chill: 32°   Ceiling: 300
Heat Index: 32°   Visibility: 1mi
Dew Point: 32°   Wind: 3mph
Humidity: 99%   Direction: 360°N
Pressure: 30.09"   Gusts: NA
Location:  38.3069°N, 88.55°W
Report Text: KFWC 270415Z AUTO 36003KT 1SM RA OVC003 00/00 A3009 RMK AO1 T00020000
Loading
Personal Weather Stations






























Interactive Weather Map New forecast layout! Learn more

10-Day Weather Forecast

Advertisements
Track Severe Weather on mobile